createdAt,value
2023-01-13T00:01:40.243Z,98932.94
2023-01-13T00:04:09.223Z,98905.53
2023-01-13T00:06:36.498Z,98881.63
2023-01-13T00:09:03.856Z,98867.28
2023-01-13T00:11:31.098Z,98851.81
2023-01-13T00:13:58.250Z,98836.69
2023-01-13T00:16:25.489Z,98823.81
2023-01-13T00:18:53.971Z,98830.94
2023-01-13T00:21:23.036Z,98840.50
2023-01-13T00:23:51.825Z,98838.19
2023-01-13T00:26:21.255Z,98840.09
2023-01-13T00:28:48.731Z,98843.66
2023-01-13T00:31:17.671Z,98845.06
2023-01-13T00:33:45.164Z,98846.78
2023-01-13T00:36:15.431Z,98853.69
2023-01-13T00:38:43.324Z,98857.72
2023-01-13T00:41:12.504Z,98856.75
2023-01-13T00:43:40.118Z,98880.53
2023-01-13T00:46:09.417Z,98873.72
2023-01-13T00:48:36.718Z,98870.53
2023-01-13T00:51:06.033Z,98867.75
2023-01-13T00:53:36.343Z,98878.63
2023-01-13T00:56:05.557Z,98882.63
2023-01-13T00:58:34.938Z,98867.53
2023-01-13T01:01:03.475Z,98852.03
2023-01-13T01:03:30.893Z,98845.16
2023-01-13T01:06:05.565Z,98858.84
2023-01-13T01:08:34.683Z,98860.22
2023-01-13T01:11:03.231Z,98878.06
2023-01-13T01:13:30.726Z,98889.38
2023-01-13T01:15:58.224Z,98871.88
2023-01-13T01:18:25.785Z,98864.50
2023-01-13T01:20:52.959Z,98861.41
2023-01-13T01:23:20.193Z,98855.19
2023-01-13T01:25:48.689Z,98881.28
2023-01-13T01:28:15.932Z,98879.84
2023-01-13T01:30:43.089Z,98875.22
2023-01-13T01:33:10.264Z,98870.94
2023-01-13T01:35:39.128Z,98872.63
2023-01-13T01:38:06.370Z,98874.09
2023-01-13T01:40:33.529Z,98890.75
2023-01-13T01:43:02.196Z,98881.84
2023-01-13T01:45:30.695Z,98879.25
2023-01-13T01:48:02.737Z,98853.22
2023-01-13T01:50:31.173Z,98866.81
2023-01-13T01:53:05.274Z,98854.38
2023-01-13T01:55:35.428Z,98851.38
2023-01-13T01:58:09.254Z,98843.03
2023-01-13T02:00:36.612Z,98839.69
2023-01-13T02:03:06.131Z,98846.47
2023-01-13T02:05:33.342Z,98838.53
2023-01-13T02:08:01.371Z,98835.47
2023-01-13T02:10:30.389Z,98841.91
2023-01-13T02:13:01.809Z,98836.72
2023-01-13T02:15:37.815Z,98837.09
2023-01-13T02:18:24.257Z,98831.72
2023-01-13T02:21:03.748Z,98872.06
2023-01-13T02:23:58.005Z,98855.19
2023-01-13T02:26:59.105Z,98855.69
2023-01-13T02:29:53.556Z,98863.31
2023-01-13T02:32:28.206Z,98870.59
2023-01-13T02:35:03.998Z,98869.16
2023-01-13T02:37:36.845Z,98885.50
2023-01-13T02:40:11.745Z,98881.66
2023-01-13T02:42:45.664Z,98901.22
2023-01-13T02:45:19.181Z,98909.47
2023-01-13T02:47:48.316Z,98898.06
2023-01-13T02:50:17.991Z,98908.28
2023-01-13T02:52:50.628Z,98917.56
2023-01-13T02:55:21.873Z,98922.47
2023-01-13T02:57:50.556Z,98927.47
2023-01-13T03:00:20.677Z,98921.63
2023-01-13T03:02:48.306Z,98920.78
2023-01-13T03:05:17.017Z,98920.50
2023-01-13T03:07:55.885Z,98906.03
2023-01-13T03:10:34.186Z,98910.41
2023-01-13T03:13:12.624Z,98910.03
2023-01-13T03:15:51.168Z,98920.72
2023-01-13T03:18:31.403Z,98924.22
2023-01-13T03:21:06.751Z,98915.34
2023-01-13T03:23:40.926Z,98901.06
2023-01-13T03:26:12.444Z,98898.94
2023-01-13T03:28:44.574Z,98898.94
2023-01-13T03:31:19.781Z,98890.72
2023-01-13T03:33:54.675Z,98873.09
2023-01-13T03:36:25.991Z,98877.75
2023-01-13T03:38:56.673Z,98896.31
2023-01-13T03:41:30.091Z,98886.25
2023-01-13T03:44:04.811Z,98889.22
2023-01-13T03:46:42.636Z,98882.81
2023-01-13T03:49:14.016Z,98899.47
2023-01-13T03:51:47.363Z,98903.47
2023-01-13T03:54:18.940Z,98922.69
2023-01-13T03:56:49.863Z,98924.81
2023-01-13T03:59:22.544Z,98925.28
2023-01-13T04:01:59.686Z,98925.41
2023-01-13T04:04:30.824Z,98926.31
2023-01-13T04:07:05.826Z,98927.75
2023-01-13T04:09:41.110Z,98922.63
2023-01-13T04:12:12.239Z,98938.38
2023-01-13T04:14:40.804Z,98935.78
2023-01-13T04:17:09.561Z,98924.94
2023-01-13T04:19:36.785Z,98916.91
2023-01-13T04:22:03.993Z,98917.56
2023-01-13T04:24:31.304Z,98923.19
2023-01-13T04:26:58.439Z,98928.44
2023-01-13T04:29:26.376Z,98927.22
2023-01-13T04:31:53.635Z,98918.25
2023-01-13T04:34:22.189Z,98942.16
2023-01-13T04:36:49.392Z,98919.66
2023-01-13T04:39:16.829Z,98932.78
2023-01-13T04:41:44.025Z,98922.63
2023-01-13T04:44:11.269Z,98931.41
2023-01-13T04:46:38.600Z,98937.84
2023-01-13T04:49:06.232Z,98930.00
2023-01-13T04:51:34.860Z,98934.00
2023-01-13T04:54:02.116Z,98925.59
2023-01-13T04:56:29.329Z,98917.94
2023-01-13T04:58:56.645Z,98902.53
2023-01-13T05:01:23.956Z,98904.25
2023-01-13T05:03:51.258Z,98910.44
2023-01-13T05:06:18.485Z,98924.50
2023-01-13T05:08:47.264Z,98926.22
2023-01-13T05:11:14.519Z,98924.31
2023-01-13T05:13:41.745Z,98924.69
2023-01-13T05:16:11.427Z,98929.88
2023-01-13T05:18:38.750Z,98924.16
2023-01-13T05:21:06.119Z,98924.16
2023-01-13T05:23:33.428Z,98941.09
2023-01-13T05:26:02.283Z,98939.09
2023-01-13T05:28:32.265Z,98930.88
2023-01-13T05:30:59.659Z,98935.84
2023-01-13T05:33:27.006Z,98943.69
2023-01-13T05:35:54.317Z,98948.47
2023-01-13T05:38:21.643Z,98951.13
2023-01-13T05:40:48.852Z,98941.75
2023-01-13T05:43:19.278Z,98950.13
2023-01-13T05:45:47.010Z,98961.84
2023-01-13T05:48:15.026Z,98940.19
2023-01-13T05:50:42.459Z,98952.50
2023-01-13T05:53:09.631Z,98954.97
2023-01-13T05:55:39.249Z,98954.81
2023-01-13T05:58:07.337Z,98953.84
2023-01-13T06:00:36.553Z,98952.72
2023-01-13T06:03:04.238Z,98952.91
2023-01-13T06:05:32.628Z,98965.06
2023-01-13T06:08:01.535Z,98954.84
2023-01-13T06:10:29.446Z,98952.53
2023-01-13T06:12:56.844Z,98956.28
2023-01-13T06:15:24.159Z,98954.56
2023-01-13T06:17:52.813Z,98965.31
2023-01-13T06:20:20.675Z,98952.19
2023-01-13T06:22:49.274Z,98962.16
2023-01-13T06:25:24.660Z,98973.47
2023-01-13T06:27:53.084Z,98977.00
2023-01-13T06:30:20.537Z,98964.66
2023-01-13T06:32:53.831Z,98969.44
2023-01-13T06:35:25.202Z,98973.66
2023-01-13T06:37:55.756Z,98967.03
2023-01-13T06:40:23.887Z,98962.53
2023-01-13T06:42:53.884Z,98972.41
2023-01-13T06:45:21.665Z,98957.56
2023-01-13T06:47:49.023Z,98965.88
2023-01-13T06:50:18.668Z,98972.03
2023-01-13T06:52:45.934Z,98971.75
2023-01-13T06:55:13.353Z,98977.06
2023-01-13T06:57:49.074Z,98974.38
2023-01-13T07:00:16.855Z,98986.69
2023-01-13T07:02:44.126Z,98985.81
2023-01-13T07:05:11.840Z,99004.00
2023-01-13T07:07:40.894Z,99011.56
2023-01-13T07:10:09.664Z,99017.59
2023-01-13T07:12:37.857Z,99019.78
2023-01-13T07:15:06.148Z,99005.56
2023-01-13T07:17:33.413Z,99017.34
2023-01-13T07:20:00.672Z,99004.53
2023-01-13T07:22:27.859Z,99018.44
2023-01-13T07:24:56.575Z,99038.34
2023-01-13T07:27:23.852Z,99026.72
2023-01-13T07:29:51.050Z,99034.16
2023-01-13T07:32:18.258Z,99025.09
2023-01-13T07:34:45.598Z,99026.50
2023-01-13T07:37:12.747Z,99037.13
2023-01-13T07:39:39.978Z,99039.88
2023-01-13T07:42:09.109Z,99042.38
2023-01-13T07:44:36.374Z,99041.41
2023-01-13T07:47:03.665Z,99047.28
2023-01-13T07:49:30.896Z,99048.69
2023-01-13T07:51:58.083Z,99046.34
2023-01-13T07:54:39.730Z,99046.66
2023-01-13T07:57:09.498Z,99053.47
2023-01-13T07:59:36.679Z,99055.75
2023-01-13T08:02:04.071Z,99056.97
2023-01-13T08:04:31.508Z,99068.22
2023-01-13T08:06:58.673Z,99044.81
2023-01-13T08:09:25.913Z,99064.22
2023-01-13T08:11:54.179Z,99058.06
2023-01-13T08:14:22.853Z,99055.72
2023-01-13T08:16:50.025Z,99062.81
2023-01-13T08:19:17.192Z,99060.16
2023-01-13T08:21:44.452Z,99056.63
2023-01-13T08:24:11.863Z,99054.91
2023-01-13T08:26:39.168Z,99049.06
2023-01-13T08:29:06.383Z,99047.81
2023-01-13T08:31:34.991Z,99049.66
2023-01-13T08:34:02.296Z,99048.41
2023-01-13T08:36:29.530Z,99054.44
2023-01-13T08:38:56.798Z,99044.13
2023-01-13T08:41:24.176Z,99045.00
2023-01-13T08:43:53.663Z,99032.19
2023-01-13T08:46:20.927Z,99051.16
2023-01-13T08:48:49.563Z,99052.34
2023-01-13T08:51:16.858Z,99026.03
2023-01-13T08:53:44.014Z,99037.63
2023-01-13T08:56:11.276Z,99043.94
2023-01-13T08:58:38.553Z,99043.19
2023-01-13T09:01:06.789Z,99035.31
2023-01-13T09:03:34.247Z,99051.03
2023-01-13T09:06:02.911Z,99035.03
2023-01-13T09:08:30.142Z,99039.56
2023-01-13T09:10:57.656Z,99034.78
2023-01-13T09:13:25.242Z,99048.25
2023-01-13T09:15:52.650Z,99036.53
2023-01-13T09:18:19.898Z,99047.63
2023-01-13T09:20:47.294Z,99046.84
2023-01-13T09:23:15.862Z,99051.94
2023-01-13T09:25:43.153Z,99068.25
2023-01-13T09:28:10.319Z,99038.94
2023-01-13T09:30:37.561Z,99032.31
2023-01-13T09:33:04.905Z,99032.13
2023-01-13T09:35:32.154Z,99047.38
2023-01-13T09:37:59.296Z,99050.63
2023-01-13T09:40:27.999Z,99042.47
2023-01-13T09:43:00.052Z,99043.53
2023-01-13T09:45:31.394Z,99046.44
2023-01-13T09:48:06.128Z,99041.06
2023-01-13T09:50:45.777Z,99046.31
2023-01-13T09:53:18.408Z,99069.13
2023-01-13T09:55:47.275Z,99054.97
2023-01-13T09:58:16.499Z,99051.53
2023-01-13T10:00:50.603Z,99046.28
2023-01-13T10:03:25.135Z,99051.66
2023-01-13T10:05:59.950Z,99054.22
2023-01-13T10:08:29.592Z,99038.44
2023-01-13T10:11:00.369Z,99059.16
2023-01-13T10:13:29.252Z,99061.34
2023-01-13T10:16:17.070Z,99069.66
2023-01-13T10:19:00.515Z,99085.41
2023-01-13T10:21:52.566Z,99110.06
2023-01-13T10:24:28.701Z,99124.66
2023-01-13T10:27:03.495Z,99151.81
2023-01-13T10:29:32.473Z,99191.16
2023-01-13T10:32:00.337Z,99242.50
2023-01-13T10:34:28.859Z,99291.75
2023-01-13T10:37:01.067Z,99332.25
2023-01-13T10:39:38.118Z,99377.97
2023-01-13T10:42:12.298Z,99402.75
2023-01-13T10:44:48.047Z,99416.78
2023-01-13T10:47:28.110Z,99441.47
2023-01-13T10:50:23.045Z,99446.59
2023-01-13T10:52:59.615Z,99447.72
2023-01-13T10:55:29.424Z,99459.28
2023-01-13T10:58:11.073Z,99454.38
2023-01-13T11:00:38.490Z,99461.34
2023-01-13T11:03:14.976Z,99451.50
2023-01-13T11:05:49.680Z,99437.03
2023-01-13T11:08:19.359Z,99436.56
2023-01-13T11:10:49.032Z,99411.13
2023-01-13T11:13:21.594Z,99425.66
2023-01-13T11:15:55.073Z,99419.03
2023-01-13T11:18:32.033Z,99422.59
2023-01-13T11:21:03.420Z,99401.31
2023-01-13T11:23:35.334Z,99376.16
2023-01-13T11:26:06.823Z,99374.50
2023-01-13T11:28:44.239Z,99389.59
2023-01-13T11:31:18.513Z,99368.63
2023-01-13T11:33:53.394Z,99341.94
2023-01-13T11:36:24.765Z,99347.34
2023-01-13T11:38:54.877Z,99333.13
2023-01-13T11:41:36.806Z,99326.63
2023-01-13T11:44:16.268Z,99314.94
2023-01-13T11:46:43.596Z,99296.44
2023-01-13T11:49:20.370Z,99292.88
2023-01-13T11:51:55.320Z,99290.25
2023-01-13T11:54:43.059Z,99269.53
2023-01-13T11:57:24.261Z,99265.53
2023-01-13T12:00:14.323Z,99260.41
2023-01-13T12:02:52.199Z,99235.56
2023-01-13T12:05:27.048Z,99259.09
2023-01-13T12:08:03.667Z,99261.41
2023-01-13T12:10:45.187Z,99293.22
2023-01-13T12:13:24.887Z,99307.41
2023-01-13T12:16:08.967Z,99357.31
2023-01-13T12:19:07.082Z,99356.88
2023-01-13T12:21:38.084Z,99392.16
2023-01-13T12:24:16.440Z,99404.69
2023-01-13T12:26:49.474Z,99412.25
2023-01-13T12:29:18.449Z,99417.66
2023-01-13T12:31:48.347Z,99430.91
2023-01-13T12:34:47.087Z,99429.06
2023-01-13T12:37:21.125Z,99438.63
2023-01-13T12:39:59.333Z,99419.53
2023-01-13T12:42:33.404Z,99429.06
2023-01-13T12:45:20.889Z,99426.13
2023-01-13T12:47:49.629Z,99425.38
2023-01-13T12:50:38.319Z,99416.44
2023-01-13T12:53:30.840Z,99420.16
2023-01-13T12:56:40.025Z,99425.09
2023-01-13T12:59:43.505Z,99422.31
2023-01-13T13:02:34.188Z,99421.88
2023-01-13T13:05:36.591Z,99400.09
2023-01-13T13:08:11.657Z,99404.13
2023-01-13T13:10:42.770Z,99400.25
2023-01-13T13:13:39.525Z,99395.00
2023-01-13T13:16:44.492Z,99408.91
2023-01-13T13:19:40.725Z,99372.31
2023-01-13T13:22:44.265Z,99373.06
2023-01-13T13:25:30.770Z,99366.47
2023-01-13T13:28:18.924Z,99348.84
2023-01-13T13:31:02.466Z,99358.75
2023-01-13T13:33:45.074Z,99358.75
2023-01-13T13:36:30.098Z,99388.69
2023-01-13T13:39:10.340Z,99400.56
2023-01-13T13:41:46.860Z,99423.53
2023-01-13T13:44:17.985Z,99446.97
2023-01-13T13:46:47.567Z,99448.34
2023-01-13T13:49:16.009Z,99463.16
2023-01-13T13:51:48.070Z,99486.09
2023-01-13T13:54:18.419Z,99493.50
2023-01-13T13:56:48.552Z,99501.22
2023-01-13T13:59:19.523Z,99529.78
2023-01-13T14:01:51.775Z,99525.66
2023-01-13T14:04:22.384Z,99501.72
2023-01-13T14:06:51.167Z,99517.97
2023-01-13T14:09:19.759Z,99507.81
2023-01-13T14:12:00.083Z,99518.91
2023-01-13T14:14:28.181Z,99483.56
2023-01-13T14:16:55.728Z,99498.09
2023-01-13T14:19:29.455Z,99482.19
2023-01-13T14:21:57.541Z,99492.53
2023-01-13T14:24:25.072Z,99463.66
2023-01-13T14:26:52.572Z,99472.78
2023-01-13T14:29:23.624Z,99476.34
2023-01-13T14:31:53.037Z,99475.56
2023-01-13T14:34:31.942Z,99476.97
2023-01-13T14:37:00.592Z,99463.22
2023-01-13T14:39:37.550Z,99447.63
2023-01-13T14:42:12.279Z,99458.72
2023-01-13T14:44:44.836Z,99448.88
2023-01-13T14:47:22.462Z,99469.56
2023-01-13T14:49:56.954Z,99459.47
2023-01-13T14:52:26.730Z,99485.50
2023-01-13T14:55:11.697Z,99504.00
2023-01-13T14:57:39.373Z,99539.16
2023-01-13T15:00:20.688Z,99529.63
2023-01-13T15:02:50.336Z,99548.31
2023-01-13T15:05:47.764Z,99554.00
2023-01-13T15:08:35.577Z,99559.28
2023-01-13T15:11:05.304Z,99553.41
2023-01-13T15:13:38.323Z,99559.28
2023-01-13T15:16:13.514Z,99567.56
2023-01-13T15:18:41.130Z,99568.78
2023-01-13T15:21:09.038Z,99577.44
2023-01-13T15:23:36.772Z,99571.88
2023-01-13T15:26:04.214Z,99572.00
2023-01-13T15:28:32.092Z,99584.50
2023-01-13T15:30:59.258Z,99580.53
2023-01-13T15:33:27.910Z,99574.97
2023-01-13T15:35:55.998Z,99587.28
2023-01-13T15:38:24.177Z,99584.66
2023-01-13T15:40:52.139Z,99612.00
2023-01-13T15:43:21.725Z,99592.09
2023-01-13T15:45:49.231Z,99596.25
2023-01-13T15:48:16.763Z,99586.72
2023-01-13T15:50:45.379Z,99594.44
2023-01-13T15:53:14.477Z,99605.28
2023-01-13T15:55:43.596Z,99605.69
2023-01-13T15:58:11.972Z,99578.72
2023-01-13T16:00:39.475Z,99573.13
2023-01-13T16:03:11.115Z,99582.56
2023-01-13T16:05:38.320Z,99586.56
2023-01-13T16:08:13.619Z,99603.53
2023-01-13T16:10:41.132Z,99601.22
2023-01-13T16:13:08.297Z,99604.03
2023-01-13T16:15:36.238Z,99612.03
2023-01-13T16:18:04.792Z,99618.09
2023-01-13T16:20:32.312Z,99621.66
2023-01-13T16:22:59.481Z,99601.63
2023-01-13T16:25:28.085Z,99610.56
2023-01-13T16:27:55.249Z,99611.81
2023-01-13T16:30:34.142Z,99632.78
2023-01-13T16:33:01.544Z,99627.88
2023-01-13T16:35:29.445Z,99627.41
2023-01-13T16:37:56.732Z,99648.84
2023-01-13T16:40:27.231Z,99638.50
2023-01-13T16:42:56.978Z,99633.88
2023-01-13T16:45:24.757Z,99660.09
2023-01-13T16:47:52.380Z,99658.56
2023-01-13T16:50:30.545Z,99658.09
2023-01-13T16:52:57.755Z,99681.09
2023-01-13T16:55:24.943Z,99715.50
2023-01-13T16:57:52.252Z,99716.09
2023-01-13T17:00:21.867Z,99731.56
2023-01-13T17:02:49.374Z,99725.69
2023-01-13T17:05:17.178Z,99728.72
2023-01-13T17:07:46.060Z,99728.06
2023-01-13T17:10:15.387Z,99740.88
2023-01-13T17:12:42.758Z,99751.84
2023-01-13T17:15:11.881Z,99791.94
2023-01-13T17:17:41.992Z,99791.63
2023-01-13T17:20:11.916Z,99793.50
2023-01-13T17:22:39.139Z,99813.84
2023-01-13T17:25:07.411Z,99798.66
2023-01-13T17:27:34.762Z,99824.28
2023-01-13T17:30:02.027Z,99846.63
2023-01-13T17:32:29.215Z,99878.06
2023-01-13T17:34:57.775Z,99895.56
2023-01-13T17:37:24.963Z,99900.47
2023-01-13T17:39:52.256Z,99921.47
2023-01-13T17:42:19.879Z,99945.34
2023-01-13T17:44:47.119Z,99965.72
2023-01-13T17:47:14.943Z,99995.16
2023-01-13T17:49:42.216Z,100031.06
2023-01-13T17:52:10.802Z,100048.88
2023-01-13T17:54:38.073Z,100058.63
2023-01-13T17:57:05.413Z,100136.34
2023-01-13T17:59:32.676Z,100175.13
2023-01-13T18:01:59.928Z,100180.59
2023-01-13T18:04:27.286Z,100182.38
2023-01-13T18:06:54.941Z,100193.09
2023-01-13T18:09:23.836Z,100216.56
2023-01-13T18:11:51.102Z,100237.06
2023-01-13T18:14:18.384Z,100247.41
2023-01-13T18:16:45.618Z,100231.56
2023-01-13T18:19:13.023Z,100246.72
2023-01-13T18:21:40.211Z,100226.22
2023-01-13T18:24:11.367Z,100266.03
2023-01-13T18:26:40.063Z,100241.81
2023-01-13T18:29:07.250Z,100257.84
2023-01-13T18:31:34.501Z,100262.50
2023-01-13T18:34:01.738Z,100275.59
2023-01-13T18:36:29.008Z,100288.50
2023-01-13T18:38:57.671Z,100287.91
2023-01-13T18:41:25.450Z,100293.63
2023-01-13T18:43:54.065Z,100266.84
2023-01-13T18:46:21.383Z,100269.78
2023-01-13T18:48:48.614Z,100275.00
2023-01-13T18:51:15.913Z,100281.22
2023-01-13T18:53:43.075Z,100261.38
2023-01-13T18:56:10.767Z,100269.28
2023-01-13T18:58:39.484Z,100274.75
2023-01-13T19:01:08.168Z,100294.31
2023-01-13T19:03:35.499Z,100287.22
2023-01-13T19:06:04.354Z,100273.34
2023-01-13T19:08:32.052Z,100291.19
2023-01-13T19:11:04.192Z,100254.81
2023-01-13T19:13:31.460Z,100245.63
2023-01-13T19:16:04.588Z,100238.84
2023-01-13T19:18:33.331Z,100243.28
2023-01-13T19:21:01.861Z,100237.84
2023-01-13T19:23:29.624Z,100248.13
2023-01-13T19:25:59.086Z,100242.50
2023-01-13T19:28:26.433Z,100242.16
2023-01-13T19:30:53.883Z,100252.97
2023-01-13T19:33:21.164Z,100249.75
2023-01-13T19:35:53.178Z,100241.78
2023-01-13T19:38:20.467Z,100241.72
2023-01-13T19:40:52.924Z,100248.13
2023-01-13T19:43:20.191Z,100254.56
2023-01-13T19:45:50.515Z,100244.31
2023-01-13T19:48:17.782Z,100249.50
2023-01-13T19:50:45.034Z,100248.31
2023-01-13T19:53:17.064Z,100277.50
2023-01-13T19:55:45.273Z,100268.34
2023-01-13T19:58:12.452Z,100279.59
2023-01-13T20:00:39.842Z,100280.97
2023-01-13T20:03:07.149Z,100297.16
2023-01-13T20:05:34.474Z,100302.78
2023-01-13T20:08:01.659Z,100290.50
2023-01-13T20:10:30.358Z,100280.28
2023-01-13T20:12:57.711Z,100300.38
2023-01-13T20:15:25.108Z,100303.84
2023-01-13T20:17:52.302Z,100307.06
2023-01-13T20:20:19.717Z,100353.41
2023-01-13T20:22:47.123Z,100350.97
2023-01-13T20:25:14.445Z,100351.16
2023-01-13T20:27:43.555Z,100343.63
2023-01-13T20:30:11.612Z,100345.16
2023-01-13T20:32:38.865Z,100344.72
2023-01-13T20:35:07.110Z,100340.75
2023-01-13T20:37:34.667Z,100349.84
2023-01-13T20:40:01.982Z,100348.22
2023-01-13T20:42:29.154Z,100356.25
2023-01-13T20:44:59.479Z,100354.16
2023-01-13T20:47:27.685Z,100374.47
2023-01-13T20:49:55.018Z,100370.44
2023-01-13T20:52:22.178Z,100359.84
2023-01-13T20:54:49.467Z,100344.84
2023-01-13T20:57:17.074Z,100380.50
2023-01-13T20:59:44.351Z,100392.28
2023-01-13T21:02:15.450Z,100377.19
2023-01-13T21:04:43.408Z,100398.59
2023-01-13T21:07:10.664Z,100420.09
2023-01-13T21:09:38.063Z,100411.50
2023-01-13T21:12:06.502Z,100393.69
2023-01-13T21:14:34.485Z,100363.09
2023-01-13T21:17:01.835Z,100352.25
2023-01-13T21:19:30.419Z,100327.19
2023-01-13T21:21:57.806Z,100321.88
2023-01-13T21:24:25.823Z,100309.28
2023-01-13T21:26:53.043Z,100289.22
2023-01-13T21:29:20.409Z,100281.81
2023-01-13T21:31:47.752Z,100276.88
2023-01-13T21:34:15.056Z,100267.97
2023-01-13T21:36:43.694Z,100248.84
2023-01-13T21:39:11.239Z,100251.97
2023-01-13T21:41:38.432Z,100264.59
2023-01-13T21:44:06.151Z,100267.97
2023-01-13T21:46:33.525Z,100259.47
2023-01-13T21:49:00.979Z,100261.13
2023-01-13T21:51:28.810Z,100265.88
2023-01-13T21:53:57.548Z,100260.84
2023-01-13T21:56:25.044Z,100259.16
2023-01-13T21:58:52.342Z,100246.47
2023-01-13T22:01:19.716Z,100245.38
2023-01-13T22:03:47.089Z,100245.38
2023-01-13T22:06:14.441Z,100235.56
2023-01-13T22:08:41.918Z,100248.66
2023-01-13T22:11:10.489Z,100244.75
2023-01-13T22:13:37.701Z,100242.41
2023-01-13T22:16:05.704Z,100247.53
2023-01-13T22:18:32.983Z,100239.56
2023-01-13T22:21:00.742Z,100284.25
2023-01-13T22:23:28.664Z,100246.22
2023-01-13T22:26:00.849Z,100236.78
2023-01-13T22:28:29.583Z,100251.84
2023-01-13T22:30:56.750Z,100251.25
2023-01-13T22:33:24.020Z,100252.00
2023-01-13T22:35:54.462Z,100248.91
2023-01-13T22:38:21.671Z,100253.22
2023-01-13T22:40:55.803Z,100263.88
2023-01-13T22:43:23.051Z,100258.59
2023-01-13T22:45:57.921Z,100259.81
2023-01-13T22:48:25.306Z,100258.75
2023-01-13T22:50:52.541Z,100261.19
2023-01-13T22:53:20.465Z,100264.81
2023-01-13T22:55:54.203Z,100247.50
2023-01-13T22:58:22.222Z,100252.34
2023-01-13T23:00:49.733Z,100249.50
2023-01-13T23:03:19.107Z,100256.22
2023-01-13T23:05:46.431Z,100250.09
2023-01-13T23:08:14.417Z,100255.28
2023-01-13T23:10:41.680Z,100254.59
2023-01-13T23:13:09.001Z,100260.56
2023-01-13T23:15:36.245Z,100253.66
2023-01-13T23:18:03.759Z,100269.41
2023-01-13T23:20:33.598Z,100262.25
2023-01-13T23:23:00.866Z,100260.66
2023-01-13T23:25:28.026Z,100255.13
2023-01-13T23:27:55.265Z,100261.53
2023-01-13T23:30:22.903Z,100266.38
2023-01-13T23:32:50.049Z,100260.50
2023-01-13T23:35:17.314Z,100278.31
2023-01-13T23:37:45.993Z,100257.72
2023-01-13T23:40:13.926Z,100285.00
2023-01-13T23:42:41.158Z,100271.22
2023-01-13T23:45:10.236Z,100277.28
2023-01-13T23:47:37.588Z,100277.88
2023-01-13T23:50:08.737Z,100290.09
2023-01-13T23:52:36.000Z,100287.75
2023-01-13T23:55:05.372Z,100289.75
2023-01-13T23:57:32.764Z,100288.44
2023-01-13T23:59:59.971Z,100294.06
